.
WxDataArchive / Data Records for 2015-09-12
2015-09-11 September 2015 2015-09-13

Data Records for Saturday, 12 September 2015

Time	Temp	Chill	HIndex	Humid	Dewpt	 Wind 	HiWind	WindDir	Rain 	Barom 
-----	----	-----	------	-----	-----	------	------	-------	-----	----- 
00:00	58.3	58.3	58.3	79	51.8	0	3	315	0.00	29.920 
00:05	58.3	58.3	58.3	78	51.5	0	3	315	0.00	29.920 
00:10	58.3	58.3	58.3	78	51.5	0	4	315	0.00	29.920 
00:15	58.3	58.3	58.3	78	51.5	1	3	315	0.00	29.917 
00:20	58.3	58.3	58.3	77	51.1	0	2	315	0.00	29.917 
00:25	58.3	58.3	58.3	77	51.1	0	1	315	0.00	29.917 
00:30	58.4	58.4	58.4	77	51.2	0	3	315	0.00	29.917 
00:35	58.4	58.4	58.4	77	51.2	0	2	315	0.00	29.917 
00:40	58.4	58.4	58.4	77	51.2	0	1	315	0.00	29.917 
00:45	58.3	58.3	58.3	77	51.1	0	3	315	0.00	29.921 
00:50	58.3	58.3	58.3	77	51.1	0	2	315	0.00	29.921 
00:55	58.3	58.3	58.3	77	51.1	0	2	315	0.00	29.921 
01:00	58.1	58.1	58.1	77	50.9	0	2	315	0.00	29.920 
01:05	58.0	58.0	58.0	78	51.2	0	2	315	0.00	29.920 
01:10	58.0	58.0	58.0	78	51.2	0	1	315	0.00	29.920 
01:15	57.8	57.8	57.8	79	51.3	0	2	315	0.00	29.920 
01:20	57.6	57.6	57.6	80	51.5	0	1	315	0.00	29.920 
01:25	57.5	57.5	57.5	80	51.4	0	2	315	0.00	29.920 
01:30	57.5	57.5	57.5	81	51.7	0	2	315	0.00	29.920 
01:35	57.3	57.3	57.3	81	51.5	0	1	315	0.00	29.920 
01:40	57.3	57.3	57.3	82	51.9	0	1	315	0.00	29.920 
01:45	57.2	57.2	57.2	82	51.8	0	2	315	0.00	29.915 
01:50	57.2	57.2	57.2	83	52.1	0	1	315	0.00	29.915 
01:55	57.2	57.2	57.2	83	52.1	0	1	315	0.00	29.915 
02:00	57.0	57.0	57.0	83	51.9	0	2	315	0.00	29.914 
02:05	57.0	57.0	57.0	83	51.9	0	2	315	0.00	29.914 
02:10	57.0	57.0	57.0	83	51.9	0	1	315	0.00	29.914 
02:15	57.0	57.0	57.0	83	51.9	0	1	315	0.00	29.911 
02:20	57.0	57.0	57.0	83	51.9	0	1	315	0.00	29.911 
02:25	57.2	57.2	57.2	83	52.1	0	1	315	0.00	29.911 
02:30	57.0	57.0	57.0	83	51.9	0	2	315	0.00	29.912 
02:35	57.0	57.0	57.0	83	51.9	0	2	315	0.00	29.912 
02:40	57.0	57.0	57.0	83	51.9	0	2	315	0.00	29.912 
02:45	57.0	57.0	57.0	83	51.9	0	3	315	0.00	29.912 
02:50	57.0	57.0	57.0	83	51.9	0	2	315	0.00	29.912 
02:55	56.9	56.9	56.9	83	51.8	0	2	315	0.00	29.912 
03:00	56.9	56.9	56.9	83	51.8	0	2	315	0.00	29.911 
03:05	56.9	56.9	56.9	83	51.8	0	1	315	0.00	29.911 
03:10	56.7	56.7	56.7	83	51.6	0	1	315	0.00	29.911 
03:15	56.7	56.7	56.7	84	51.9	0	1	315	0.00	29.911 
03:20	56.6	56.6	56.6	84	51.8	0	2	315	0.00	29.911 
03:25	56.5	56.5	56.5	84	51.7	0	1	315	0.00	29.911 
03:30	56.3	56.3	56.3	85	51.8	0	3	315	0.00	29.910 
03:35	56.3	56.3	56.3	85	51.8	0	2	315	0.00	29.910 
03:40	56.2	56.2	56.2	86	52.1	0	2	315	0.00	29.910 
03:45	56.0	56.0	56.0	86	51.9	0	1	315	0.00	29.910 
03:50	56.0	56.0	56.0	86	51.9	0	2	315	0.00	29.910 
03:55	56.0	56.0	56.0	86	51.9	0	2	315	0.00	29.910 
04:00	56.0	56.0	56.0	87	52.2	0	1	315	0.00	29.908 
04:05	55.9	55.9	55.9	87	52.1	0	2	315	0.00	29.908 
04:10	55.9	55.9	55.9	87	52.1	0	2	315	0.00	29.908 
04:15	55.9	55.9	55.9	87	52.1	0	1	315	0.00	29.901 
04:20	55.9	55.9	55.9	87	52.1	0	2	315	0.00	29.901 
04:25	55.7	55.7	55.7	87	51.9	0	2	315	0.00	29.901 
04:30	55.7	55.7	55.7	87	51.9	0	1	315	0.00	29.902 
04:35	55.6	55.6	55.6	87	51.8	0	1	315	0.00	29.902 
04:40	55.4	55.4	55.4	87	51.6	0	2	315	0.00	29.902 
04:45	55.1	55.1	55.1	87	51.3	0	1	315	0.00	29.901 
04:50	55.0	55.0	55.0	88	51.5	0	1	315	0.00	29.901 
04:55	54.8	54.8	54.8	88	51.3	0	1	315	0.00	29.901 
05:00	54.7	54.7	54.7	88	51.2	0	0	---	0.00	29.904 
05:05	54.5	54.5	54.5	88	51.0	0	0	---	0.00	29.904 
05:10	54.4	54.4	54.4	88	50.9	0	0	---	0.00	29.904 
05:15	54.2	54.2	54.2	88	50.7	0	0	---	0.00	29.905 
05:20	54.1	54.1	54.1	89	50.9	0	0	---	0.00	29.905 
05:25	53.9	53.9	53.9	89	50.7	0	0	---	0.00	29.905 
05:30	53.8	53.8	53.8	89	50.6	0	0	---	0.00	29.910 
05:35	53.6	53.6	53.6	89	50.4	0	0	---	0.00	29.910 
05:40	53.6	53.6	53.6	90	50.7	0	0	---	0.00	29.910 
05:45	53.5	53.5	53.5	90	50.6	0	0	---	0.00	29.911 
05:50	53.3	53.3	53.3	90	50.4	0	0	---	0.00	29.911 
05:55	53.3	53.3	53.3	90	50.4	0	0	---	0.00	29.911 
06:00	53.3	53.3	53.3	91	50.7	0	0	---	0.00	29.911 
06:05	53.2	53.2	53.2	91	50.6	0	0	---	0.00	29.911 
06:10	53.2	53.2	53.2	91	50.6	0	1	315	0.00	29.911 
06:15	53.2	53.2	53.2	91	50.6	0	0	---	0.00	29.912 
06:20	53.1	53.1	53.1	91	50.5	0	0	---	0.00	29.912 
06:25	52.9	52.9	52.9	91	50.3	0	0	---	0.00	29.912 
06:30	52.9	52.9	52.9	91	50.3	0	1	315	0.00	29.913 
06:35	52.9	52.9	52.9	91	50.3	0	1	315	0.00	29.913 
06:40	52.9	52.9	52.9	92	50.6	0	1	315	0.00	29.913 
06:45	52.8	52.8	52.8	92	50.5	0	1	315	0.00	29.914 
06:50	52.8	52.8	52.8	92	50.5	0	1	315	0.00	29.914 
06:55	52.8	52.8	52.8	92	50.5	0	1	315	0.00	29.914 
07:00	52.6	52.6	52.6	92	50.3	0	2	315	0.00	29.914 
07:05	52.6	52.6	52.6	92	50.3	0	1	315	0.00	29.914 
07:10	52.5	52.5	52.5	92	50.2	0	1	315	0.00	29.914 
07:15	52.5	52.5	52.5	92	50.2	0	2	315	0.00	29.917 
07:20	52.3	52.3	52.3	92	50.0	0	1	315	0.00	29.917 
07:25	52.3	52.3	52.3	92	50.0	0	1	315	0.00	29.917 
07:30	52.2	52.2	52.2	92	49.9	0	1	315	0.00	29.922 
07:35	52.2	52.2	52.2	92	49.9	0	1	315	0.00	29.922 
07:40	52.2	52.2	52.2	92	49.9	0	2	315	0.00	29.922 
07:45	52.2	52.2	52.2	92	49.9	0	1	315	0.00	29.924 
07:50	52.3	52.3	52.3	92	50.0	0	1	315	0.00	29.924 
07:55	52.5	52.5	52.5	93	50.5	0	2	315	0.00	29.924 
08:00	52.8	52.8	52.8	93	50.8	0	2	315	0.00	29.927 
08:05	52.8	52.8	52.8	92	50.5	0	3	315	0.00	29.927 
08:10	53.1	53.1	53.1	92	50.8	0	2	315	0.00	29.927 
08:15	53.2	53.2	53.2	92	50.9	0	1	315	0.00	29.928 
08:20	53.2	53.2	53.2	92	50.9	0	2	315	0.00	29.928 
08:25	53.3	53.3	53.3	92	51.0	0	1	315	0.00	29.928 
08:30	53.3	53.3	53.3	92	51.0	0	2	315	0.00	29.930 
08:35	53.5	53.5	53.5	91	50.9	0	1	315	0.00	29.930 
08:40	53.6	53.6	53.6	91	51.0	0	3	315	0.00	29.930 
08:45	53.8	53.8	53.8	90	50.9	1	5	292	0.00	29.931 
08:50	54.1	54.1	54.1	90	51.2	0	3	90	0.00	29.931 
08:55	54.4	54.4	54.4	89	51.2	1	4	90	0.00	29.931 
09:00	54.4	54.4	54.4	88	50.9	1	5	338	0.00	29.935 
09:05	54.4	54.4	54.4	87	50.6	1	4	315	0.00	29.935 
09:10	54.4	54.4	54.4	87	50.6	1	4	315	0.00	29.935 
09:15	54.4	54.4	54.4	87	50.6	0	2	315	0.00	29.938 
09:20	54.4	54.4	54.4	87	50.6	0	3	292	0.00	29.938 
09:25	54.4	54.4	54.4	86	50.3	1	3	292	0.01	29.938 
09:30	54.4	54.4	54.4	86	50.3	0	1	292	0.00	29.939 
09:35	54.4	54.4	54.4	85	50.0	0	1	292	0.00	29.939 
09:40	54.4	54.4	54.4	84	49.7	0	1	292	0.00	29.939 
09:45	54.4	54.4	54.4	83	49.3	0	3	292	0.00	29.939 
09:50	54.5	54.5	54.5	82	49.1	0	2	292	0.00	29.939 
09:55	54.5	54.5	54.5	81	48.8	0	2	292	0.00	29.939 
10:00	54.7	54.7	54.7	80	48.7	0	3	292	0.00	29.940 
10:05	54.8	54.8	54.8	80	48.7	0	1	292	0.00	29.940 
10:10	55.0	55.0	55.0	80	48.9	0	2	315	0.00	29.940 
10:15	55.3	55.3	55.3	80	49.2	0	2	315	0.00	29.944 
10:20	55.4	55.4	55.4	78	48.7	0	3	45	0.00	29.944 
10:25	55.6	55.6	55.6	79	49.2	0	2	45	0.00	29.944 
10:30	55.9	55.9	55.9	79	49.5	0	1	45	0.00	29.948 
10:35	55.9	55.9	55.9	78	49.1	0	2	45	0.00	29.948 
10:40	56.2	56.2	56.2	77	49.1	0	3	45	0.00	29.948 
10:45	56.3	56.3	56.3	76	48.8	0	2	45	0.00	29.952 
10:50	56.6	56.6	56.6	77	49.5	1	3	45	0.00	29.952 
10:55	56.6	56.6	56.6	76	49.1	1	6	112	0.00	29.952 
11:00	56.2	56.2	56.2	77	49.1	1	3	315	0.00	29.956 
11:05	56.0	56.0	56.0	77	48.9	1	4	315	0.00	29.956 
11:10	56.6	56.6	56.6	78	49.8	0	3	315	0.00	29.956 
11:15	57.0	57.0	57.0	75	49.2	1	5	90	0.00	29.961 
11:20	57.0	57.0	57.0	75	49.2	0	2	112	0.00	29.961 
11:25	57.2	57.2	57.2	73	48.6	0	3	112	0.00	29.961 
11:30	57.2	57.2	57.2	74	49.0	1	4	112	0.00	29.962 
11:35	57.5	57.5	57.5	73	48.9	1	4	315	0.00	29.962 
11:40	57.6	57.6	57.6	70	47.9	1	4	315	0.00	29.962 
11:45	58.4	58.4	58.4	70	48.7	1	4	90	0.00	29.960 
11:50	58.6	58.6	58.6	67	47.7	1	5	0	0.00	29.960 
11:55	58.9	58.9	58.9	68	48.4	1	5	315	0.00	29.960 
12:00	58.6	58.6	58.6	66	47.3	1	4	292	0.00	29.955 
12:05	58.7	58.7	58.7	67	47.8	1	3	292	0.00	29.955 
12:10	59.3	59.3	59.3	66	47.9	1	5	338	0.00	29.955 
12:15	59.8	59.8	59.8	63	47.2	2	6	315	0.00	29.947 
12:20	60.1	60.1	60.1	65	48.3	0	3	315	0.00	29.947 
12:25	59.9	59.9	59.9	63	47.3	1	3	315	0.00	29.947 
12:30	60.1	60.1	60.1	61	46.6	1	6	292	0.00	29.943 
12:35	60.7	60.7	60.7	58	45.8	2	5	112	0.00	29.943 
12:40	60.7	60.7	60.7	58	45.8	2	4	292	0.00	29.943 
12:45	61.2	61.2	61.2	56	45.4	1	4	292	0.00	29.942 
12:50	61.2	61.2	61.2	58	46.3	2	6	315	0.00	29.942 
12:55	60.9	60.9	60.9	56	45.1	1	4	315	0.00	29.942 
13:00	61.2	61.2	61.2	56	45.4	1	4	315	0.00	29.941 
13:05	61.2	61.2	61.2	55	44.9	1	4	315	0.00	29.941 
13:10	61.2	61.2	61.2	57	45.8	1	4	292	0.00	29.941 
13:15	60.7	60.7	60.7	55	44.4	2	4	315	0.00	29.939 
13:20	60.5	60.5	60.5	57	45.2	1	3	315	0.00	29.939 
13:25	60.5	60.5	60.5	57	45.2	2	7	270	0.00	29.939 
13:30	60.4	60.4	60.4	56	44.6	2	7	338	0.00	29.933 
13:35	60.4	60.4	60.4	56	44.6	1	5	292	0.00	29.933 
13:40	60.7	60.7	60.7	56	44.9	1	3	292	0.00	29.933 
13:45	60.7	60.7	60.7	55	44.4	3	7	292	0.00	29.928 
13:50	61.0	61.0	61.0	57	45.7	2	7	315	0.00	29.928 
13:55	61.2	61.2	61.2	54	44.4	1	6	292	0.00	29.928 
14:00	61.6	61.6	61.6	53	44.3	1	5	315	0.00	29.923 
14:05	62.0	62.0	62.0	52	44.2	3	6	270	0.00	29.923 
14:10	61.8	61.8	61.8	53	44.5	2	6	338	0.00	29.923 
14:15	61.5	61.5	61.5	51	43.2	3	7	292	0.00	29.919 
14:20	61.6	61.6	61.6	52	43.8	2	5	270	0.00	29.919 
14:25	61.8	61.8	61.8	53	44.5	3	7	292	0.00	29.919 
14:30	61.5	61.5	61.5	52	43.7	1	5	292	0.00	29.915 
14:35	61.2	61.2	61.2	51	42.9	2	4	338	0.00	29.915 
14:40	61.6	61.6	61.6	51	43.3	2	5	292	0.00	29.915 
14:45	61.6	61.6	61.6	50	42.8	2	6	292	0.00	29.912 
14:50	62.1	62.1	62.1	52	44.3	1	3	292	0.00	29.912 
14:55	62.9	62.9	62.9	50	44.0	2	9	292	0.00	29.912 
15:00	63.1	63.1	63.1	49	43.6	2	7	292	0.00	29.909 
15:05	62.7	62.7	62.7	49	43.3	2	4	292	0.00	29.909 
15:10	62.4	62.4	62.4	49	43.0	2	6	292	0.00	29.909 
15:15	62.1	62.1	62.1	51	43.8	1	4	315	0.00	29.907 
15:20	62.4	62.4	62.4	50	43.5	1	3	315	0.00	29.907 
15:25	62.9	62.9	62.9	51	44.5	2	4	315	0.00	29.907 
15:30	62.7	62.7	62.7	50	43.8	1	3	315	0.00	29.899 
15:35	63.2	63.2	63.2	51	44.8	2	7	338	0.00	29.899 
15:40	62.9	62.9	62.9	50	44.0	3	5	292	0.00	29.899 
15:45	62.7	62.7	62.7	51	44.3	1	4	315	0.00	29.900 
15:50	62.9	62.9	62.9	49	43.4	1	5	292	0.00	29.900 
15:55	62.9	62.9	62.9	50	44.0	1	4	292	0.00	29.900 
16:00	63.4	63.4	63.4	50	44.4	2	6	315	0.00	29.898 
16:05	63.2	63.2	63.2	51	44.8	2	5	315	0.00	29.898 
16:10	62.6	62.6	62.6	54	45.7	1	5	292	0.00	29.898 
16:15	62.1	62.1	62.1	56	46.2	1	6	315	0.00	29.901 
16:20	61.8	61.8	61.8	58	46.9	1	4	0	0.00	29.901 
16:25	61.6	61.6	61.6	59	47.1	1	4	315	0.00	29.901 
16:30	61.5	61.5	61.5	60	47.5	1	5	292	0.00	29.904 
16:35	61.2	61.2	61.2	60	47.2	2	6	315	0.00	29.904 
16:40	61.2	61.2	61.2	61	47.6	2	6	315	0.00	29.904 
16:45	61.2	61.2	61.2	62	48.1	3	6	292	0.00	29.907 
16:50	61.5	61.5	61.5	63	48.8	0	3	292	0.00	29.907 
16:55	61.5	61.5	61.5	62	48.4	1	5	292	0.00	29.907 
17:00	61.2	61.2	61.2	64	48.9	1	5	315	0.00	29.908 
17:05	60.7	60.7	60.7	64	48.4	1	6	270	0.00	29.908 
17:10	60.4	60.4	60.4	64	48.2	1	5	292	0.00	29.908 
17:15	60.1	60.1	60.1	66	48.7	1	6	315	0.00	29.910 
17:20	60.2	60.2	60.2	67	49.2	0	3	112	0.00	29.910 
17:25	60.2	60.2	60.2	65	48.4	1	5	135	0.00	29.910 
17:30	60.4	60.4	60.4	65	48.6	1	4	22	0.00	29.914 
17:35	60.1	60.1	60.1	65	48.3	2	6	0	0.00	29.914 
17:40	59.9	59.9	59.9	66	48.5	2	9	315	0.00	29.914 
17:45	59.8	59.8	59.8	65	48.0	1	5	112	0.00	29.915 
17:50	59.6	59.6	59.6	66	48.2	1	5	112	0.00	29.915 
17:55	59.3	59.3	59.3	65	47.5	1	11	135	0.00	29.915 
18:00	59.3	59.3	59.3	66	47.9	1	5	112	0.00	29.914 
18:05	59.3	59.3	59.3	67	48.3	0	3	315	0.00	29.914 
18:10	59.3	59.3	59.3	66	47.9	1	6	225	0.00	29.914 
18:15	59.3	59.3	59.3	66	47.9	2	6	112	0.00	29.917 
18:20	59.3	59.3	59.3	66	47.9	1	5	315	0.00	29.917 
18:25	59.2	59.2	59.2	65	47.4	1	5	112	0.00	29.917 
18:30	59.2	59.2	59.2	65	47.4	1	3	112	0.00	29.919 
18:35	59.2	59.2	59.2	65	47.4	0	2	112	0.00	29.919 
18:40	59.0	59.0	59.0	65	47.2	0	1	112	0.00	29.919 
18:45	59.0	59.0	59.0	65	47.2	0	3	112	0.00	29.919 
18:50	58.9	58.9	58.9	65	47.2	0	4	112	0.00	29.919 
18:55	58.9	58.9	58.9	65	47.2	0	2	112	0.00	29.919 
19:00	58.9	58.9	58.9	66	47.6	0	1	112	0.00	29.919 
19:05	58.9	58.9	58.9	66	47.6	0	1	112	0.00	29.919 
19:10	58.9	58.9	58.9	66	47.6	0	1	112	0.00	29.919 
19:15	58.7	58.7	58.7	65	47.0	0	1	112	0.00	29.919 
19:20	58.7	58.7	58.7	64	46.6	0	2	112	0.00	29.919 
19:25	58.7	58.7	58.7	64	46.6	0	1	112	0.00	29.919 
19:30	58.7	58.7	58.7	65	47.0	0	2	112	0.00	29.918 
19:35	58.6	58.6	58.6	65	46.9	0	1	112	0.00	29.918 
19:40	58.6	58.6	58.6	65	46.9	0	0	---	0.00	29.918 
19:45	58.4	58.4	58.4	65	46.7	0	0	---	0.00	29.921 
19:50	58.4	58.4	58.4	65	46.7	0	1	112	0.00	29.921 
19:55	58.3	58.3	58.3	65	46.6	0	1	112	0.00	29.921 
20:00	58.1	58.1	58.1	66	46.8	0	0	---	0.00	29.920 
20:05	58.0	58.0	58.0	66	46.7	0	0	---	0.00	29.920 
20:10	57.8	57.8	57.8	68	47.3	0	0	---	0.00	29.920 
20:15	57.6	57.6	57.6	69	47.5	0	0	---	0.00	29.920 
20:20	57.5	57.5	57.5	69	47.4	0	0	---	0.00	29.920 
20:25	57.3	57.3	57.3	70	47.6	0	0	---	0.00	29.920 
20:30	57.2	57.2	57.2	71	47.9	0	0	---	0.00	29.927 
20:35	57.0	57.0	57.0	73	48.4	0	0	---	0.00	29.927 
20:40	57.0	57.0	57.0	74	48.8	0	0	---	0.00	29.927 
20:45	56.9	56.9	56.9	74	48.7	0	0	---	0.00	29.933 
20:50	56.7	56.7	56.7	74	48.5	0	0	---	0.00	29.933 
20:55	56.6	56.6	56.6	74	48.4	0	1	112	0.00	29.933 
21:00	56.5	56.5	56.5	73	47.9	0	0	---	0.00	29.935 
21:05	56.3	56.3	56.3	73	47.8	0	0	---	0.00	29.935 
21:10	56.2	56.2	56.2	73	47.7	0	0	---	0.00	29.935 
21:15	56.2	56.2	56.2	74	48.0	0	0	---	0.00	29.936 
21:20	56.0	56.0	56.0	74	47.8	0	0	---	0.00	29.936 
21:25	56.0	56.0	56.0	75	48.2	0	0	---	0.00	29.936 
21:30	55.9	55.9	55.9	75	48.1	0	0	---	0.00	29.943 
21:35	55.7	55.7	55.7	74	47.5	0	0	---	0.00	29.943 
21:40	55.7	55.7	55.7	74	47.5	0	0	---	0.00	29.943 
21:45	55.7	55.7	55.7	74	47.5	0	0	---	0.00	29.948 
21:50	55.7	55.7	55.7	75	47.9	0	0	---	0.00	29.948 
21:55	55.6	55.6	55.6	74	47.4	0	0	---	0.00	29.948 
22:00	55.6	55.6	55.6	74	47.4	0	0	---	0.00	29.950 
22:05	55.4	55.4	55.4	74	47.3	0	0	---	0.00	29.950 
22:10	55.4	55.4	55.4	74	47.3	0	0	---	0.00	29.950 
22:15	55.4	55.4	55.4	75	47.6	0	0	---	0.00	29.950 
22:20	55.3	55.3	55.3	75	47.5	0	0	---	0.00	29.950 
22:25	55.3	55.3	55.3	75	47.5	0	0	---	0.00	29.950 
22:30	55.1	55.1	55.1	76	47.7	0	0	---	0.00	29.949 
22:35	55.1	55.1	55.1	76	47.7	0	0	---	0.00	29.949 
22:40	55.1	55.1	55.1	76	47.7	0	0	---	0.00	29.949 
22:45	55.1	55.1	55.1	77	48.0	0	0	---	0.00	29.950 
22:50	55.0	55.0	55.0	77	47.9	0	0	---	0.00	29.950 
22:55	55.0	55.0	55.0	77	47.9	0	0	---	0.00	29.950 
23:00	55.0	55.0	55.0	77	47.9	0	0	---	0.00	29.950 
23:05	55.0	55.0	55.0	78	48.3	0	0	---	0.00	29.950 
23:10	54.8	54.8	54.8	78	48.1	0	0	---	0.00	29.950 
23:15	54.8	54.8	54.8	78	48.1	0	0	---	0.00	29.948 
23:20	54.8	54.8	54.8	79	48.4	0	0	---	0.00	29.948 
23:25	54.8	54.8	54.8	79	48.4	0	0	---	0.00	29.948 
23:30	54.8	54.8	54.8	79	48.4	0	0	---	0.00	29.947 
23:35	54.8	54.8	54.8	79	48.4	0	0	---	0.00	29.947 
23:40	54.8	54.8	54.8	79	48.4	0	0	---	0.00	29.947 
23:45	54.8	54.8	54.8	80	48.7	0	0	---	0.00	29.948 
23:50	54.8	54.8	54.8	80	48.7	0	0	---	0.00	29.948 
23:55	54.8	54.8	54.8	80	48.7	0	0	---	0.00	29.948 

CoCoRaHS
IN-AL-39
A2 Web Hosting
Creative Commons License
GoDaddy
search engine by freefind advanced

loaded 2018-11-16 10:37:50 • last modified 2010-11-18 10:43:29
Privacy PolicyDisclaimer
• wx.awcolley.com is powered by PmWiki v.2002016 •
• all content (unless otherwise noted) © 2018 A W Colley